createdAt,value
2023-01-17T00:00:07.533Z,14.93
2023-01-17T00:00:24.351Z,15.50
2023-01-17T00:00:58.413Z,14.68
2023-01-17T00:01:12.727Z,14.27
2023-01-17T00:01:25.517Z,14.27
2023-01-17T00:01:39.199Z,14.00
2023-01-17T00:01:51.773Z,13.95
2023-01-17T00:02:05.874Z,13.75
2023-01-17T00:02:19.427Z,13.40
2023-01-17T00:02:33.252Z,13.52
2023-01-17T00:02:45.960Z,13.70
2023-01-17T00:02:58.687Z,13.68
2023-01-17T00:03:11.390Z,14.00
2023-01-17T00:03:24.069Z,14.20
2023-01-17T00:03:57.604Z,14.13
2023-01-17T00:04:29.002Z,13.77
2023-01-17T00:05:00.171Z,13.68
2023-01-17T00:05:31.457Z,14.05
2023-01-17T00:06:02.962Z,14.57
2023-01-17T00:06:34.254Z,13.90
2023-01-17T00:07:05.439Z,13.90
2023-01-17T00:07:38.196Z,13.85
2023-01-17T00:08:09.338Z,14.43
2023-01-17T00:08:40.448Z,14.18
2023-01-17T00:09:10.753Z,13.55
2023-01-17T00:09:42.353Z,13.52
2023-01-17T00:09:57.009Z,13.00
2023-01-17T00:10:12.274Z,12.73
2023-01-17T00:10:27.299Z,13.04
2023-01-17T00:10:40.952Z,12.65
2023-01-17T00:10:54.539Z,12.75
2023-01-17T00:11:08.195Z,13.13
2023-01-17T00:11:20.787Z,13.02
2023-01-17T00:11:33.425Z,13.02
2023-01-17T00:11:46.636Z,12.95
2023-01-17T00:12:00.705Z,12.77
2023-01-17T00:12:14.257Z,12.77
2023-01-17T00:12:31.004Z,12.88
2023-01-17T00:12:48.180Z,12.60
2023-01-17T00:13:02.354Z,12.88
2023-01-17T00:13:14.972Z,13.10
2023-01-17T00:13:27.694Z,12.80
2023-01-17T00:13:41.307Z,12.30
2023-01-17T00:13:53.948Z,12.10
2023-01-17T00:14:06.673Z,12.57
2023-01-17T00:14:19.573Z,13.20
2023-01-17T00:14:32.210Z,13.43
2023-01-17T00:14:44.998Z,13.30
2023-01-17T00:14:59.057Z,13.10
2023-01-17T00:15:12.793Z,13.07
2023-01-17T00:15:26.280Z,13.15
2023-01-17T00:15:40.038Z,13.23
2023-01-17T00:15:53.124Z,12.75
2023-01-17T00:16:07.918Z,12.57
2023-01-17T00:16:20.592Z,12.88
2023-01-17T00:16:33.277Z,12.77
2023-01-17T00:16:46.875Z,12.75
2023-01-17T00:17:01.195Z,12.50
2023-01-17T00:17:13.892Z,12.60
2023-01-17T00:17:27.810Z,12.93
2023-01-17T00:17:40.401Z,12.63
2023-01-17T00:17:54.780Z,12.48
2023-01-17T00:18:07.358Z,13.06
2023-01-17T00:18:20.333Z,13.07
2023-01-17T00:18:32.913Z,12.95
2023-01-17T00:19:05.654Z,12.57
2023-01-17T00:19:36.781Z,12.65
2023-01-17T00:20:07.928Z,12.82
2023-01-17T00:20:42.082Z,12.32
2023-01-17T00:21:13.149Z,13.10
2023-01-17T00:21:43.890Z,12.07
2023-01-17T00:22:14.955Z,12.75
2023-01-17T00:22:48.014Z,12.63
2023-01-17T00:23:19.135Z,13.05
2023-01-17T00:23:55.757Z,12.35
2023-01-17T00:24:27.633Z,12.55
2023-01-17T00:24:58.780Z,12.52
2023-01-17T00:25:31.023Z,13.05
2023-01-17T00:26:02.239Z,12.95
2023-01-17T00:26:19.239Z,12.65
2023-01-17T00:26:32.265Z,12.50
2023-01-17T00:26:59.735Z,12.25
2023-01-17T00:27:12.188Z,12.30
2023-01-17T00:27:24.717Z,12.15
2023-01-17T00:27:37.454Z,12.35
2023-01-17T00:27:49.994Z,12.10
2023-01-17T00:28:02.917Z,12.13
2023-01-17T00:28:15.576Z,12.43
2023-01-17T00:28:28.722Z,12.43
2023-01-17T00:28:43.125Z,12.70
2023-01-17T00:28:55.587Z,12.75
2023-01-17T00:29:08.019Z,12.25
2023-01-17T00:29:20.460Z,12.18
2023-01-17T00:29:32.907Z,12.15
2023-01-17T00:29:45.326Z,12.18
2023-01-17T00:29:57.747Z,12.43
2023-01-17T00:30:11.893Z,12.30
2023-01-17T00:30:24.960Z,12.02
2023-01-17T00:30:37.470Z,12.27
2023-01-17T00:30:50.332Z,12.18
2023-01-17T00:31:03.809Z,11.93
2023-01-17T00:31:20.151Z,12.10
2023-01-17T00:31:33.023Z,12.13
2023-01-17T00:31:45.513Z,12.02
2023-01-17T00:31:57.986Z,12.30
2023-01-17T00:32:10.434Z,12.45
2023-01-17T00:32:22.959Z,12.32
2023-01-17T00:32:35.422Z,12.32
2023-01-17T00:32:47.867Z,12.20
2023-01-17T00:33:00.492Z,12.02
2023-01-17T00:33:13.285Z,12.60
2023-01-17T00:33:25.969Z,12.65
2023-01-17T00:33:38.663Z,12.85
2023-01-17T00:33:51.124Z,12.90
2023-01-17T00:34:03.564Z,12.57
2023-01-17T00:34:16.019Z,12.50
2023-01-17T00:34:28.492Z,12.77
2023-01-17T00:34:40.961Z,12.68
2023-01-17T00:34:53.403Z,12.63
2023-01-17T00:35:06.677Z,12.55
2023-01-17T00:35:20.511Z,12.80
2023-01-17T00:35:34.227Z,12.98
2023-01-17T00:35:46.793Z,13.05
2023-01-17T00:36:00.219Z,13.05
2023-01-17T00:36:12.907Z,12.90
2023-01-17T00:36:25.337Z,12.85
2023-01-17T00:36:37.774Z,13.27
2023-01-17T00:36:50.209Z,12.88
2023-01-17T00:37:02.640Z,12.15
2023-01-17T00:37:15.080Z,12.35
2023-01-17T00:37:27.529Z,12.20
2023-01-17T00:37:39.962Z,12.43
2023-01-17T00:38:01.258Z,12.75
2023-01-17T00:38:15.256Z,12.80
2023-01-17T00:38:29.673Z,12.68
2023-01-17T00:38:42.145Z,12.63
2023-01-17T00:38:54.598Z,12.45
2023-01-17T00:39:07.045Z,12.73
2023-01-17T00:39:19.473Z,12.57
2023-01-17T00:39:31.929Z,12.68
2023-01-17T00:39:44.641Z,12.55
2023-01-17T00:39:57.064Z,12.52
2023-01-17T00:40:10.898Z,12.45
2023-01-17T00:40:23.351Z,12.50
2023-01-17T00:40:37.443Z,12.30
2023-01-17T00:40:50.766Z,12.27
2023-01-17T00:41:04.624Z,12.23
2023-01-17T00:41:17.101Z,12.10
2023-01-17T00:41:29.621Z,12.20
2023-01-17T00:41:42.092Z,12.68
2023-01-17T00:41:54.554Z,12.70
2023-01-17T00:42:07.033Z,12.50
2023-01-17T00:42:19.472Z,12.27
2023-01-17T00:42:31.972Z,12.23
2023-01-17T00:42:47.163Z,12.15
2023-01-17T00:43:18.289Z,11.77
2023-01-17T00:43:50.019Z,12.20
2023-01-17T00:44:21.137Z,12.35
2023-01-17T00:44:52.469Z,12.23
2023-01-17T00:45:24.787Z,12.15
2023-01-17T00:45:55.546Z,12.02
2023-01-17T00:46:26.918Z,12.60
2023-01-17T00:46:59.410Z,12.57
2023-01-17T00:47:30.568Z,12.25
2023-01-17T00:48:03.430Z,12.38
2023-01-17T00:48:34.237Z,11.35
2023-01-17T00:49:05.305Z,11.90
2023-01-17T00:49:36.656Z,11.75
2023-01-17T00:50:07.431Z,12.15
2023-01-17T00:50:38.561Z,12.35
2023-01-17T00:51:09.355Z,12.45
2023-01-17T00:51:40.511Z,12.65
2023-01-17T00:52:11.916Z,12.93
2023-01-17T00:52:43.021Z,12.57
2023-01-17T00:53:14.046Z,12.00
2023-01-17T00:53:45.388Z,12.23
2023-01-17T00:54:18.908Z,12.40
2023-01-17T00:54:50.206Z,12.63
2023-01-17T00:55:21.167Z,12.73
2023-01-17T00:55:52.179Z,12.40
2023-01-17T00:56:23.761Z,13.55
2023-01-17T00:56:54.881Z,13.23
2023-01-17T00:57:26.096Z,13.80
2023-01-17T00:57:57.264Z,13.07
2023-01-17T00:58:28.464Z,13.60
2023-01-17T00:58:59.570Z,13.40
2023-01-17T00:59:30.684Z,13.57
2023-01-17T01:00:01.731Z,13.57
2023-01-17T01:00:33.302Z,13.63
2023-01-17T01:01:04.506Z,14.15
2023-01-17T01:01:36.645Z,14.18
2023-01-17T01:02:09.280Z,14.18
2023-01-17T01:02:41.007Z,13.68
2023-01-17T01:03:12.230Z,13.88
2023-01-17T01:03:43.249Z,13.20
2023-01-17T01:04:14.246Z,12.80
2023-01-17T01:04:45.258Z,12.80
2023-01-17T01:05:16.271Z,12.70
2023-01-17T01:05:47.071Z,12.93
2023-01-17T01:06:18.091Z,12.43
2023-01-17T01:06:49.146Z,12.55
2023-01-17T01:07:20.753Z,12.70
2023-01-17T01:07:51.935Z,12.30
2023-01-17T01:08:38.422Z,13.00
2023-01-17T01:09:10.252Z,13.68
2023-01-17T01:09:41.053Z,13.13
2023-01-17T01:10:12.091Z,13.18
2023-01-17T01:10:42.935Z,13.68
2023-01-17T01:11:13.932Z,13.95
2023-01-17T01:11:44.874Z,14.38
2023-01-17T01:12:16.208Z,14.52
2023-01-17T01:12:47.220Z,14.25
2023-01-17T01:13:18.244Z,15.30
2023-01-17T01:13:50.856Z,15.60
2023-01-17T01:14:22.936Z,16.17
2023-01-17T01:14:54.260Z,15.10
2023-01-17T01:15:26.934Z,16.25
2023-01-17T01:15:57.936Z,15.90
2023-01-17T01:16:29.883Z,16.55
2023-01-17T01:17:01.016Z,15.73
2023-01-17T01:17:33.528Z,16.42
2023-01-17T01:18:04.624Z,16.17
2023-01-17T01:18:35.787Z,16.38
2023-01-17T01:19:06.793Z,16.48
2023-01-17T01:19:37.660Z,16.35
2023-01-17T01:20:08.782Z,16.38
2023-01-17T01:20:39.549Z,15.82
2023-01-17T01:21:10.741Z,16.42
2023-01-17T01:21:41.934Z,15.32
2023-01-17T01:22:13.040Z,15.48
2023-01-17T01:22:43.887Z,14.63
2023-01-17T01:23:14.947Z,15.07
2023-01-17T01:23:46.069Z,15.20
2023-01-17T01:24:17.216Z,15.35
2023-01-17T01:24:48.174Z,15.35
2023-01-17T01:25:19.307Z,14.88
2023-01-17T01:25:50.746Z,15.52
2023-01-17T01:26:22.325Z,14.90
2023-01-17T01:26:53.318Z,15.27
2023-01-17T01:27:24.332Z,14.95
2023-01-17T01:27:55.461Z,14.45
2023-01-17T01:28:30.625Z,14.15
2023-01-17T01:29:01.724Z,14.32
2023-01-17T01:29:32.622Z,13.90
2023-01-17T01:30:04.389Z,13.63
2023-01-17T01:30:35.614Z,14.00
2023-01-17T01:31:07.544Z,14.13
2023-01-17T01:31:38.967Z,13.93
2023-01-17T01:32:10.213Z,13.38
2023-01-17T01:32:43.080Z,13.80
2023-01-17T01:33:14.075Z,13.27
2023-01-17T01:33:26.545Z,13.48
2023-01-17T01:33:40.139Z,13.55
2023-01-17T01:33:53.673Z,13.18
2023-01-17T01:34:06.246Z,13.13
2023-01-17T01:34:18.967Z,12.93
2023-01-17T01:34:31.525Z,12.82
2023-01-17T01:34:44.099Z,13.10
2023-01-17T01:34:56.682Z,13.23
2023-01-17T01:35:10.257Z,13.40
2023-01-17T01:35:23.512Z,13.35
2023-01-17T01:35:36.576Z,13.20
2023-01-17T01:35:51.096Z,13.20
2023-01-17T01:36:04.033Z,13.32
2023-01-17T01:36:16.674Z,13.13
2023-01-17T01:36:30.280Z,13.30
2023-01-17T01:36:42.867Z,13.45
2023-01-17T01:36:55.437Z,13.45
2023-01-17T01:37:08.007Z,12.93
2023-01-17T01:37:20.594Z,13.18
2023-01-17T01:37:33.197Z,12.95
2023-01-17T01:37:45.815Z,12.82
2023-01-17T01:37:59.651Z,13.02
2023-01-17T01:38:12.272Z,13.50
2023-01-17T01:38:26.448Z,13.75
2023-01-17T01:38:39.644Z,13.48
2023-01-17T01:38:53.552Z,13.40
2023-01-17T01:39:06.383Z,13.77
2023-01-17T01:39:20.042Z,13.98
2023-01-17T01:39:32.651Z,13.48
2023-01-17T01:39:45.235Z,13.18
2023-01-17T01:39:57.876Z,13.90
2023-01-17T01:40:11.437Z,14.32
2023-01-17T01:40:24.193Z,14.35
2023-01-17T01:40:42.451Z,14.57
2023-01-17T01:40:57.700Z,14.43
2023-01-17T01:41:10.310Z,13.98
2023-01-17T01:41:23.304Z,14.07
2023-01-17T01:41:35.879Z,14.27
2023-01-17T01:41:48.798Z,14.43
2023-01-17T01:42:01.384Z,14.55
2023-01-17T01:42:15.372Z,14.40
2023-01-17T01:42:28.915Z,14.18
2023-01-17T01:42:49.345Z,13.98
2023-01-17T01:43:05.724Z,14.15
2023-01-17T01:43:20.980Z,14.20
2023-01-17T01:43:44.046Z,14.13
2023-01-17T01:43:57.622Z,13.95
2023-01-17T01:44:44.689Z,13.70
2023-01-17T01:44:57.537Z,13.98
2023-01-17T01:45:17.384Z,14.18
2023-01-17T01:45:33.200Z,14.50
2023-01-17T01:45:50.578Z,14.50
2023-01-17T01:46:03.907Z,14.35
2023-01-17T01:46:21.533Z,13.82
2023-01-17T01:46:40.315Z,14.05
2023-01-17T01:46:52.902Z,13.70
2023-01-17T01:47:05.604Z,13.50
2023-01-17T01:47:27.016Z,14.10
2023-01-17T01:47:40.823Z,14.43
2023-01-17T01:47:57.725Z,14.27
2023-01-17T01:48:24.267Z,13.90
2023-01-17T01:48:40.840Z,14.55
2023-01-17T01:48:56.144Z,14.30
2023-01-17T01:49:18.591Z,14.07
2023-01-17T01:49:31.236Z,14.35
2023-01-17T01:49:44.388Z,14.10
2023-01-17T01:50:00.271Z,13.82
2023-01-17T01:50:15.002Z,13.60
2023-01-17T01:50:29.534Z,13.93
2023-01-17T01:50:44.051Z,14.10
2023-01-17T01:50:56.896Z,14.25
2023-01-17T01:51:16.036Z,14.50
2023-01-17T01:51:33.408Z,14.45
2023-01-17T01:51:49.817Z,14.68
2023-01-17T01:52:05.807Z,14.35
2023-01-17T01:52:22.495Z,13.52
2023-01-17T01:52:40.119Z,14.25
2023-01-17T01:52:56.150Z,14.43
2023-01-17T01:53:08.752Z,14.27
2023-01-17T01:53:21.952Z,14.50
2023-01-17T01:53:38.378Z,14.85
2023-01-17T01:53:59.768Z,15.00
2023-01-17T01:54:17.915Z,14.25
2023-01-17T01:54:36.525Z,14.40
2023-01-17T01:54:55.040Z,14.55
2023-01-17T01:55:11.620Z,14.77
2023-01-17T01:55:27.884Z,14.52
2023-01-17T01:55:43.410Z,14.57
2023-01-17T01:55:56.212Z,15.00
2023-01-17T01:56:13.264Z,15.10
2023-01-17T01:56:26.717Z,14.57
2023-01-17T01:56:39.854Z,14.35
2023-01-17T01:56:55.887Z,14.75
2023-01-17T01:57:12.867Z,14.90
2023-01-17T01:57:30.716Z,15.20
2023-01-17T01:57:47.466Z,14.65
2023-01-17T01:58:07.596Z,14.70
2023-01-17T01:58:23.126Z,14.85
2023-01-17T01:58:38.429Z,14.82
2023-01-17T01:58:52.641Z,15.32
2023-01-17T01:59:08.914Z,15.48
2023-01-17T01:59:22.997Z,15.57
2023-01-17T01:59:39.012Z,15.52
2023-01-17T01:59:55.799Z,15.40
2023-01-17T02:00:17.555Z,15.38
2023-01-17T02:00:33.773Z,15.43
2023-01-17T02:00:46.557Z,15.38
2023-01-17T02:00:59.257Z,15.45
2023-01-17T02:01:12.222Z,15.32
2023-01-17T02:01:25.027Z,15.25
2023-01-17T02:01:38.819Z,15.48
2023-01-17T02:01:56.098Z,15.25
2023-01-17T02:02:08.893Z,15.65
2023-01-17T02:02:21.787Z,15.95
2023-01-17T02:02:36.053Z,15.80
2023-01-17T02:02:51.212Z,15.50
2023-01-17T02:03:08.077Z,15.27
2023-01-17T02:03:26.027Z,15.50
2023-01-17T02:03:41.177Z,15.20
2023-01-17T02:03:53.872Z,14.85
2023-01-17T02:04:10.107Z,15.43
2023-01-17T02:04:24.145Z,15.55
2023-01-17T02:04:37.155Z,15.23
2023-01-17T02:04:50.872Z,14.95
2023-01-17T02:05:04.835Z,15.57
2023-01-17T02:05:20.724Z,16.25
2023-01-17T02:05:36.343Z,15.90
2023-01-17T02:05:49.188Z,15.23
2023-01-17T02:06:12.376Z,15.35
2023-01-17T02:06:29.272Z,15.88
2023-01-17T02:06:45.949Z,16.10
2023-01-17T02:07:06.707Z,15.77
2023-01-17T02:07:23.961Z,15.65
2023-01-17T02:07:43.914Z,15.77
2023-01-17T02:08:02.747Z,15.35
2023-01-17T02:08:18.031Z,15.50
2023-01-17T02:08:32.544Z,15.60
2023-01-17T02:08:45.522Z,15.60
2023-01-17T02:09:00.982Z,15.90
2023-01-17T02:09:15.469Z,16.20
2023-01-17T02:09:28.145Z,15.85
2023-01-17T02:09:41.598Z,15.68
2023-01-17T02:09:55.044Z,15.70
2023-01-17T02:10:09.733Z,15.52
2023-01-17T02:10:22.310Z,15.43
2023-01-17T02:10:36.436Z,15.57
2023-01-17T02:10:49.871Z,15.40
2023-01-17T02:11:03.182Z,15.18
2023-01-17T02:11:15.884Z,15.40
2023-01-17T02:11:29.550Z,15.55
2023-01-17T02:11:42.699Z,15.75
2023-01-17T02:11:55.340Z,16.05
2023-01-17T02:12:09.198Z,16.48
2023-01-17T02:12:22.211Z,16.35
2023-01-17T02:12:35.608Z,16.08
2023-01-17T02:12:49.510Z,16.33
2023-01-17T02:13:04.215Z,16.58
2023-01-17T02:13:19.406Z,16.58
2023-01-17T02:13:32.004Z,16.45
2023-01-17T02:13:44.624Z,16.77
2023-01-17T02:13:57.175Z,16.65
2023-01-17T02:14:15.276Z,16.05
2023-01-17T02:14:27.909Z,16.10
2023-01-17T02:14:42.259Z,16.40
2023-01-17T02:14:55.566Z,15.95
2023-01-17T02:15:09.112Z,16.42
2023-01-17T02:15:25.580Z,16.67
2023-01-17T02:15:48.664Z,16.10
2023-01-17T02:16:09.657Z,15.85
2023-01-17T02:16:49.985Z,16.27
2023-01-17T02:17:12.419Z,16.30
2023-01-17T02:17:33.965Z,16.77
2023-01-17T02:17:59.654Z,16.48
2023-01-17T02:18:21.623Z,16.33
2023-01-17T02:18:50.205Z,16.38
2023-01-17T02:19:22.592Z,16.98
2023-01-17T02:20:08.591Z,16.67
2023-01-17T02:20:58.712Z,16.73
2023-01-17T02:21:26.371Z,17.15
2023-01-17T02:21:46.486Z,16.75
2023-01-17T02:22:17.264Z,17.45
2023-01-17T02:23:03.437Z,17.75
2023-01-17T02:23:44.239Z,17.75
2023-01-17T02:24:26.523Z,17.70
2023-01-17T02:25:03.691Z,17.17
2023-01-17T02:25:38.838Z,17.33
2023-01-17T02:26:16.660Z,17.45
2023-01-17T02:26:47.933Z,17.67
2023-01-17T02:27:08.341Z,17.35
2023-01-17T02:27:26.081Z,16.75
2023-01-17T02:27:56.413Z,17.58
2023-01-17T02:28:24.634Z,17.40
2023-01-17T02:29:01.561Z,18.25
2023-01-17T02:29:49.884Z,17.75
2023-01-17T02:30:28.618Z,18.40
2023-01-17T02:30:46.230Z,17.73
2023-01-17T02:31:06.823Z,18.35
2023-01-17T02:31:26.903Z,18.27
2023-01-17T02:31:46.244Z,18.02
2023-01-17T02:32:05.251Z,17.50
2023-01-17T02:32:23.552Z,18.55
2023-01-17T02:32:45.672Z,18.48
2023-01-17T02:33:15.644Z,18.25
2023-01-17T02:33:36.017Z,18.48
2023-01-17T02:33:57.785Z,18.25
2023-01-17T02:34:17.541Z,18.63
2023-01-17T02:34:37.148Z,18.27
2023-01-17T02:34:55.957Z,17.98
2023-01-17T02:35:18.458Z,18.20
2023-01-17T02:35:38.042Z,18.63
2023-01-17T02:36:04.190Z,19.23
2023-01-17T02:36:24.186Z,18.35
2023-01-17T02:36:43.492Z,17.95
2023-01-17T02:37:05.508Z,18.42
2023-01-17T02:37:23.979Z,19.15
2023-01-17T02:37:45.889Z,18.58
2023-01-17T02:38:07.219Z,18.38
2023-01-17T02:38:31.664Z,18.38
2023-01-17T02:38:51.620Z,17.85
2023-01-17T02:39:09.594Z,18.73
2023-01-17T02:39:24.445Z,19.35
2023-01-17T02:39:43.571Z,19.08
2023-01-17T02:40:00.516Z,19.33
2023-01-17T02:40:19.510Z,19.13
2023-01-17T02:40:38.193Z,18.42
2023-01-17T02:40:56.011Z,18.65
2023-01-17T02:41:16.868Z,19.13
2023-01-17T02:41:33.546Z,18.65
2023-01-17T02:41:49.085Z,18.40
2023-01-17T02:42:07.573Z,18.48
2023-01-17T02:42:26.552Z,19.10
2023-01-17T02:42:46.625Z,19.10
2023-01-17T02:43:05.649Z,18.10
2023-01-17T02:43:20.209Z,18.85
2023-01-17T02:43:33.803Z,19.25
2023-01-17T02:43:50.304Z,19.05
2023-01-17T02:44:03.897Z,18.65
2023-01-17T02:44:19.175Z,18.92
2023-01-17T02:44:40.888Z,19.05
2023-01-17T02:44:53.544Z,18.42
2023-01-17T02:45:07.966Z,18.35
2023-01-17T02:45:21.149Z,18.95
2023-01-17T02:45:36.361Z,18.95
2023-01-17T02:45:49.015Z,18.70
2023-01-17T02:46:01.665Z,18.95
2023-01-17T02:46:14.366Z,19.10
2023-01-17T02:46:26.933Z,18.80
2023-01-17T02:46:46.683Z,18.50
2023-01-17T02:46:59.416Z,18.80
2023-01-17T02:47:24.975Z,18.85
2023-01-17T02:47:37.856Z,18.75
2023-01-17T02:47:50.430Z,18.35
2023-01-17T02:48:03.372Z,18.50
2023-01-17T02:48:20.060Z,19.15
2023-01-17T02:48:37.631Z,19.27
2023-01-17T02:48:51.776Z,19.58
2023-01-17T02:49:04.336Z,19.75
2023-01-17T02:49:19.451Z,19.08
2023-01-17T02:49:32.860Z,19.02
2023-01-17T02:49:45.493Z,18.85
2023-01-17T02:50:02.194Z,18.92
2023-01-17T02:50:20.938Z,19.33
2023-01-17T02:50:46.541Z,19.38
2023-01-17T02:51:24.257Z,19.05
2023-01-17T02:52:07.190Z,20.02
2023-01-17T02:52:36.270Z,18.45
2023-01-17T02:53:03.733Z,18.80
2023-01-17T02:53:31.202Z,19.70
2023-01-17T02:53:58.551Z,19.27
2023-01-17T02:54:47.193Z,18.88
2023-01-17T02:55:13.267Z,19.60
2023-01-17T02:55:37.933Z,18.75
2023-01-17T02:55:57.353Z,18.73
2023-01-17T02:56:19.498Z,18.77
2023-01-17T02:56:45.117Z,18.45
2023-01-17T02:57:12.179Z,18.58
2023-01-17T02:57:47.917Z,18.52
2023-01-17T02:58:22.343Z,19.30
2023-01-17T02:58:49.184Z,18.70
2023-01-17T02:59:16.635Z,18.83
2023-01-17T02:59:39.040Z,19.23
2023-01-17T02:59:57.652Z,19.65
2023-01-17T03:00:21.757Z,18.83
2023-01-17T03:00:48.877Z,19.40
2023-01-17T03:01:10.129Z,19.25
2023-01-17T03:01:30.203Z,19.45
2023-01-17T03:01:58.495Z,19.73
2023-01-17T03:02:23.076Z,18.92
2023-01-17T03:02:43.064Z,18.90
2023-01-17T03:03:02.345Z,19.25
2023-01-17T03:03:23.144Z,19.90
2023-01-17T03:03:42.905Z,19.27
2023-01-17T03:04:01.672Z,19.13
2023-01-17T03:04:20.656Z,19.27
2023-01-17T03:04:39.183Z,18.73
2023-01-17T03:04:55.811Z,19.08
2023-01-17T03:05:13.420Z,19.17
2023-01-17T03:05:32.557Z,19.23
2023-01-17T03:05:52.910Z,19.10
2023-01-17T03:06:12.025Z,19.05
2023-01-17T03:06:30.332Z,19.67
2023-01-17T03:06:48.163Z,20.27
2023-01-17T03:07:06.230Z,19.80
2023-01-17T03:07:23.485Z,19.60
2023-01-17T03:07:39.953Z,19.63
2023-01-17T03:07:53.822Z,19.92
2023-01-17T03:08:07.585Z,19.30
2023-01-17T03:08:22.367Z,19.42
2023-01-17T03:08:35.106Z,19.20
2023-01-17T03:08:50.608Z,18.85
2023-01-17T03:09:04.268Z,19.13
2023-01-17T03:09:18.573Z,19.80
2023-01-17T03:09:32.586Z,20.15
2023-01-17T03:09:49.441Z,20.10
2023-01-17T03:10:05.327Z,19.88
2023-01-17T03:10:19.283Z,19.30
2023-01-17T03:10:35.257Z,19.10
2023-01-17T03:10:47.882Z,19.20
2023-01-17T03:11:01.536Z,19.10
2023-01-17T03:11:14.849Z,19.60
2023-01-17T03:11:27.838Z,19.15
2023-01-17T03:11:40.847Z,18.52
2023-01-17T03:11:53.728Z,18.90
2023-01-17T03:12:09.399Z,19.10
2023-01-17T03:12:22.135Z,19.67
2023-01-17T03:12:39.334Z,19.70
2023-01-17T03:12:57.792Z,19.50
2023-01-17T03:13:10.493Z,19.20
2023-01-17T03:13:23.126Z,19.15
2023-01-17T03:13:35.774Z,19.25
2023-01-17T03:13:48.402Z,19.10
2023-01-17T03:14:01.968Z,18.90
2023-01-17T03:14:14.589Z,19.33
2023-01-17T03:14:30.222Z,19.20
2023-01-17T03:14:42.774Z,19.35
2023-01-17T03:14:55.380Z,19.35
2023-01-17T03:15:10.951Z,19.10
2023-01-17T03:15:23.620Z,18.73
2023-01-17T03:15:40.034Z,18.95
2023-01-17T03:15:53.164Z,19.45
2023-01-17T03:16:12.775Z,19.25
2023-01-17T03:16:27.897Z,19.02
2023-01-17T03:16:40.600Z,18.92
2023-01-17T03:16:54.388Z,18.67
2023-01-17T03:17:07.386Z,18.38
2023-01-17T03:17:20.425Z,18.25
2023-01-17T03:17:33.281Z,18.73
2023-01-17T03:17:49.411Z,19.30
2023-01-17T03:18:05.207Z,18.90
2023-01-17T03:18:17.889Z,18.00
2023-01-17T03:18:31.490Z,18.27
2023-01-17T03:18:44.167Z,18.38
2023-01-17T03:18:56.795Z,19.08
2023-01-17T03:19:09.918Z,19.33
2023-01-17T03:19:22.491Z,19.27
2023-01-17T03:19:35.148Z,19.30
2023-01-17T03:19:48.055Z,18.75
2023-01-17T03:20:00.663Z,18.17
2023-01-17T03:20:14.341Z,17.88
2023-01-17T03:20:27.237Z,17.90
2023-01-17T03:20:40.033Z,18.65
2023-01-17T03:20:52.618Z,18.65
2023-01-17T03:21:05.412Z,18.27
2023-01-17T03:21:18.007Z,18.45
2023-01-17T03:21:31.922Z,18.42
2023-01-17T03:21:44.521Z,17.95
2023-01-17T03:21:57.165Z,18.08
2023-01-17T03:22:09.799Z,18.35
2023-01-17T03:22:22.420Z,18.15
2023-01-17T03:22:35.000Z,17.73
2023-01-17T03:22:47.599Z,18.45
2023-01-17T03:23:00.205Z,18.58
2023-01-17T03:23:13.783Z,18.08
2023-01-17T03:23:26.595Z,17.95
2023-01-17T03:23:39.224Z,17.73
2023-01-17T03:23:52.625Z,17.42
2023-01-17T03:24:05.722Z,17.20
2023-01-17T03:24:18.285Z,17.42
2023-01-17T03:24:31.000Z,18.02
2023-01-17T03:24:44.576Z,18.30
2023-01-17T03:24:57.164Z,18.55
2023-01-17T03:25:10.467Z,18.50
2023-01-17T03:25:23.120Z,17.95
2023-01-17T03:25:35.705Z,17.50
2023-01-17T03:25:48.346Z,17.65
2023-01-17T03:26:02.092Z,18.23
2023-01-17T03:26:14.828Z,18.00
2023-01-17T03:26:27.401Z,17.20
2023-01-17T03:26:39.982Z,17.02
2023-01-17T03:26:52.581Z,17.13
2023-01-17T03:27:05.181Z,17.45
2023-01-17T03:27:17.811Z,17.45
2023-01-17T03:27:31.359Z,17.70
2023-01-17T03:27:44.281Z,17.55
2023-01-17T03:27:56.914Z,17.73
2023-01-17T03:28:09.521Z,18.00
2023-01-17T03:28:22.120Z,18.20
2023-01-17T03:28:34.725Z,18.15
2023-01-17T03:28:47.347Z,18.27
2023-01-17T03:29:00.974Z,18.15
2023-01-17T03:29:13.588Z,17.85
2023-01-17T03:29:26.165Z,17.73
2023-01-17T03:29:38.772Z,18.02
2023-01-17T03:29:51.395Z,18.08
2023-01-17T03:30:04.701Z,18.27
2023-01-17T03:30:17.900Z,17.90
2023-01-17T03:30:31.529Z,17.70
2023-01-17T03:30:45.581Z,17.88
2023-01-17T03:30:58.215Z,18.40
2023-01-17T03:31:14.762Z,18.20
2023-01-17T03:31:27.400Z,17.33
2023-01-17T03:31:40.266Z,16.70
2023-01-17T03:31:53.064Z,16.38
2023-01-17T03:32:07.148Z,16.25
2023-01-17T03:32:19.722Z,16.35
2023-01-17T03:32:32.323Z,16.75
2023-01-17T03:32:44.892Z,17.08
2023-01-17T03:32:57.497Z,17.33
2023-01-17T03:33:10.068Z,17.08
2023-01-17T03:33:23.672Z,16.80
2023-01-17T03:33:36.601Z,16.90
2023-01-17T03:33:49.244Z,17.27
2023-01-17T03:34:01.830Z,17.33
2023-01-17T03:34:14.416Z,17.17
2023-01-17T03:34:26.985Z,17.35
2023-01-17T03:34:39.615Z,17.13
2023-01-17T03:34:53.153Z,16.83
2023-01-17T03:35:06.864Z,16.95
2023-01-17T03:35:19.461Z,16.67
2023-01-17T03:35:32.071Z,16.25
2023-01-17T03:35:45.227Z,16.23
2023-01-17T03:35:59.303Z,16.50
2023-01-17T03:36:12.286Z,16.70
2023-01-17T03:36:24.922Z,16.85
2023-01-17T03:36:37.473Z,17.15
2023-01-17T03:36:50.085Z,16.80
2023-01-17T03:37:02.653Z,16.45
2023-01-17T03:37:15.322Z,16.35
2023-01-17T03:37:27.874Z,16.58
2023-01-17T03:37:41.434Z,16.77
2023-01-17T03:37:54.057Z,16.88
2023-01-17T03:38:06.646Z,17.08
2023-01-17T03:38:19.557Z,17.35
2023-01-17T03:38:32.126Z,17.05
2023-01-17T03:38:44.688Z,16.92
2023-01-17T03:38:58.334Z,17.25
2023-01-17T03:39:11.721Z,17.13
2023-01-17T03:39:24.304Z,16.70
2023-01-17T03:39:36.984Z,16.58
2023-01-17T03:39:49.862Z,16.50
2023-01-17T03:40:02.467Z,16.58
2023-01-17T03:40:15.339Z,16.92
2023-01-17T03:40:27.917Z,16.88
2023-01-17T03:40:40.692Z,16.85
2023-01-17T03:40:54.541Z,16.52
2023-01-17T03:41:08.207Z,17.20
2023-01-17T03:41:20.782Z,17.70
2023-01-17T03:41:33.370Z,17.15
2023-01-17T03:41:45.970Z,16.70
2023-01-17T03:41:58.569Z,16.77
2023-01-17T03:42:11.151Z,17.08
2023-01-17T03:42:24.764Z,16.75
2023-01-17T03:42:37.337Z,16.50
2023-01-17T03:42:49.929Z,16.60
2023-01-17T03:43:02.502Z,16.88
2023-01-17T03:43:15.094Z,16.98
2023-01-17T03:43:27.683Z,16.42
2023-01-17T03:43:41.276Z,16.17
2023-01-17T03:43:54.109Z,16.33
2023-01-17T03:44:06.827Z,16.27
2023-01-17T03:44:19.428Z,16.40
2023-01-17T03:44:32.011Z,16.30
2023-01-17T03:44:44.623Z,16.60
2023-01-17T03:44:57.210Z,16.90
2023-01-17T03:45:11.571Z,16.45
2023-01-17T03:45:24.189Z,16.23
2023-01-17T03:45:37.807Z,16.45
2023-01-17T03:45:54.459Z,16.30
2023-01-17T03:46:17.462Z,16.60
2023-01-17T03:46:31.046Z,16.27
2023-01-17T03:46:43.625Z,16.40
2023-01-17T03:46:56.266Z,16.52
2023-01-17T03:47:12.010Z,16.65
2023-01-17T03:47:24.708Z,16.63
2023-01-17T03:47:38.286Z,16.15
2023-01-17T03:47:51.123Z,16.35
2023-01-17T03:48:03.946Z,16.35
2023-01-17T03:48:16.681Z,16.42
2023-01-17T03:48:29.642Z,16.38
2023-01-17T03:48:42.223Z,15.65
2023-01-17T03:48:56.088Z,16.13
2023-01-17T03:49:09.579Z,16.67
2023-01-17T03:49:22.905Z,16.75
2023-01-17T03:49:35.972Z,16.13
2023-01-17T03:49:48.705Z,16.23
2023-01-17T03:50:01.351Z,16.65
2023-01-17T03:50:14.075Z,16.65
2023-01-17T03:50:27.873Z,16.17
2023-01-17T03:50:40.435Z,16.30
2023-01-17T03:50:53.178Z,16.50
2023-01-17T03:51:06.032Z,16.48
2023-01-17T03:51:18.942Z,16.38
2023-01-17T03:51:32.524Z,16.25
2023-01-17T03:51:45.405Z,16.35
2023-01-17T03:51:58.310Z,16.60
2023-01-17T03:52:10.906Z,16.65
2023-01-17T03:52:23.470Z,16.40
2023-01-17T03:52:36.044Z,16.02
2023-01-17T03:52:48.623Z,16.33
2023-01-17T03:53:01.209Z,16.50
2023-01-17T03:53:14.767Z,16.17
2023-01-17T03:53:27.358Z,15.52
2023-01-17T03:53:40.018Z,16.15
2023-01-17T03:53:52.601Z,16.45
2023-01-17T03:54:05.529Z,16.58
2023-01-17T03:54:19.166Z,16.55
2023-01-17T03:54:31.916Z,16.50
2023-01-17T03:54:44.519Z,16.10
2023-01-17T03:54:57.120Z,16.15
2023-01-17T03:55:10.373Z,16.13
2023-01-17T03:55:23.082Z,16.25
2023-01-17T03:55:35.686Z,16.42